createdAt,value
2018-10-09T00:01:54.753Z,80.27
2018-10-09T00:04:23.225Z,88.17
2018-10-09T00:06:51.720Z,88.17
2018-10-09T00:09:20.166Z,82.20
2018-10-09T00:11:48.722Z,85.67
2018-10-09T00:14:17.271Z,90.80
2018-10-09T00:16:45.766Z,91.93
2018-10-09T00:19:14.213Z,87.07
2018-10-09T00:21:42.673Z,95.53
2018-10-09T00:24:11.125Z,86.80
2018-10-09T00:26:39.610Z,90.20
2018-10-09T00:29:08.081Z,94.17
2018-10-09T00:31:36.574Z,89.17
2018-10-09T00:34:05.494Z,110.77
2018-10-09T00:36:34.237Z,84.53
2018-10-09T00:39:02.817Z,88.30
2018-10-09T00:41:31.358Z,84.23
2018-10-09T00:43:59.837Z,89.83
2018-10-09T00:46:28.320Z,78.60
2018-10-09T00:48:56.804Z,77.00
2018-10-09T00:51:25.386Z,81.97
2018-10-09T00:53:53.822Z,82.37
2018-10-09T00:56:22.304Z,79.90
2018-10-09T00:58:50.853Z,84.83
2018-10-09T01:01:20.276Z,87.87
2018-10-09T01:03:48.825Z,86.00
2018-10-09T01:06:17.433Z,78.10
2018-10-09T01:08:45.942Z,87.63
2018-10-09T01:11:14.378Z,81.87
2018-10-09T01:13:42.918Z,76.80
2018-10-09T01:16:11.397Z,84.87
2018-10-09T01:18:39.903Z,79.50
2018-10-09T01:21:08.559Z,79.77
2018-10-09T01:23:37.158Z,75.43
2018-10-09T01:26:05.641Z,82.73
2018-10-09T01:28:34.115Z,91.73
2018-10-09T01:31:02.558Z,81.70
2018-10-09T01:33:31.045Z,86.80
2018-10-09T01:35:59.525Z,64.90
2018-10-09T01:38:28.011Z,83.43
2018-10-09T01:40:56.493Z,83.13
2018-10-09T01:43:24.960Z,80.13
2018-10-09T01:45:53.442Z,80.53
2018-10-09T01:48:21.886Z,87.30
2018-10-09T01:50:50.365Z,82.10
2018-10-09T01:53:18.815Z,79.07
2018-10-09T01:55:47.562Z,84.20
2018-10-09T01:58:16.471Z,92.23
2018-10-09T02:00:44.991Z,72.97
2018-10-09T02:03:13.449Z,70.40
2018-10-09T02:05:41.929Z,69.60
2018-10-09T02:08:10.445Z,77.87
2018-10-09T02:10:39.135Z,62.00
2018-10-09T02:13:08.205Z,71.73
2018-10-09T02:15:36.847Z,76.40
2018-10-09T02:18:05.438Z,69.70
2018-10-09T02:20:34.033Z,78.53
2018-10-09T02:23:02.821Z,75.70
2018-10-09T02:25:31.807Z,70.30
2018-10-09T02:28:00.457Z,66.17
2018-10-09T02:30:29.069Z,77.63
2018-10-09T02:33:03.290Z,80.80
2018-10-09T02:35:31.931Z,79.63
2018-10-09T02:38:00.526Z,87.00
2018-10-09T02:40:29.082Z,74.03
2018-10-09T02:42:57.555Z,85.40
2018-10-09T02:45:26.026Z,92.30
2018-10-09T02:47:54.606Z,84.23
2018-10-09T02:50:23.289Z,86.60
2018-10-09T02:52:51.838Z,90.23
2018-10-09T02:55:20.364Z,89.67
2018-10-09T02:57:48.857Z,96.70
2018-10-09T03:00:17.341Z,86.60
2018-10-09T03:02:45.841Z,104.55
2018-10-09T03:05:14.313Z,91.60
2018-10-09T03:07:43.033Z,102.83
2018-10-09T03:10:11.753Z,102.37
2018-10-09T03:12:40.217Z,95.33
2018-10-09T03:15:08.701Z,99.60
2018-10-09T03:17:37.156Z,99.43
2018-10-09T03:20:05.814Z,98.00
2018-10-09T03:22:34.311Z,99.30
2018-10-09T03:25:02.858Z,109.77
2018-10-09T03:27:31.408Z,97.93
2018-10-09T03:29:59.972Z,112.77
2018-10-09T03:32:28.545Z,96.83
2018-10-09T03:34:57.126Z,96.23
2018-10-09T03:37:25.580Z,94.40
2018-10-09T03:39:54.560Z,96.30
2018-10-09T03:42:23.112Z,100.50
2018-10-09T03:44:51.625Z,122.47
2018-10-09T03:47:20.157Z,116.35
2018-10-09T03:49:48.701Z,113.17
2018-10-09T03:52:17.217Z,108.20
2018-10-09T03:54:45.694Z,101.15
2018-10-09T03:57:14.346Z,116.00
2018-10-09T03:59:42.801Z,96.40
2018-10-09T04:02:11.597Z,106.80
2018-10-09T04:04:40.287Z,113.52
2018-10-09T04:07:08.821Z,109.53
2018-10-09T04:09:37.473Z,109.20
2018-10-09T04:12:05.908Z,101.57
2018-10-09T04:14:34.381Z,103.10
2018-10-09T04:17:02.897Z,101.03
2018-10-09T04:19:31.397Z,95.77
2018-10-09T04:21:59.830Z,105.60
2018-10-09T04:24:28.904Z,108.53
2018-10-09T04:26:57.420Z,103.80
2018-10-09T04:29:26.441Z,106.03
2018-10-09T04:31:54.892Z,107.93
2018-10-09T04:34:23.413Z,108.70
2018-10-09T04:36:51.910Z,102.23
2018-10-09T04:39:20.417Z,118.27
2018-10-09T04:41:48.905Z,96.30
2018-10-09T04:44:17.369Z,103.70
2018-10-09T04:46:45.857Z,110.37
2018-10-09T04:49:14.398Z,103.97
2018-10-09T04:51:42.881Z,108.53
2018-10-09T04:54:11.375Z,108.47
2018-10-09T04:56:39.857Z,106.43
2018-10-09T04:59:08.395Z,108.13
2018-10-09T05:01:36.884Z,106.47
2018-10-09T05:04:05.390Z,103.83
2018-10-09T05:06:33.883Z,104.57
2018-10-09T05:09:02.417Z,109.73
2018-10-09T05:11:30.899Z,101.77
2018-10-09T05:13:59.381Z,89.80
2018-10-09T05:16:28.514Z,95.43
2018-10-09T05:18:57.242Z,97.33
2018-10-09T05:21:25.718Z,91.57
2018-10-09T05:23:54.248Z,88.47
2018-10-09T05:26:22.757Z,96.53
2018-10-09T05:28:51.258Z,102.92
2018-10-09T05:31:19.768Z,84.57
2018-10-09T05:33:48.246Z,78.00
2018-10-09T05:36:16.702Z,85.93
2018-10-09T05:38:45.301Z,90.90
2018-10-09T05:41:14.329Z,80.60
2018-10-09T05:43:42.830Z,71.90
2018-10-09T05:46:11.351Z,82.37
2018-10-09T05:48:40.074Z,85.00
2018-10-09T05:51:09.025Z,84.57
2018-10-09T05:53:37.473Z,86.30
2018-10-09T05:56:06.126Z,78.70
2018-10-09T05:58:34.623Z,71.00
2018-10-09T06:01:03.157Z,76.53
2018-10-09T06:03:31.655Z,94.73
2018-10-09T06:06:00.251Z,73.53
2018-10-09T06:08:28.742Z,78.07
2018-10-09T06:10:57.258Z,90.00
2018-10-09T06:13:25.761Z,74.43
2018-10-09T06:15:54.296Z,70.13
2018-10-09T06:18:23.037Z,80.70
2018-10-09T06:20:51.518Z,73.80
2018-10-09T06:23:19.994Z,73.13
2018-10-09T06:25:48.864Z,78.10
2018-10-09T06:28:17.429Z,78.70
2018-10-09T06:30:45.883Z,66.70
2018-10-09T06:33:14.794Z,68.17
2018-10-09T06:35:47.054Z,72.23
2018-10-09T06:38:15.573Z,76.53
2018-10-09T06:40:44.068Z,72.47
2018-10-09T06:43:12.545Z,73.23
2018-10-09T06:45:41.012Z,78.60
2018-10-09T06:48:09.545Z,81.83
2018-10-09T06:50:38.017Z,70.53
2018-10-09T06:53:06.538Z,87.00
2018-10-09T06:55:35.028Z,87.30
2018-10-09T06:58:03.982Z,79.13
2018-10-09T07:00:32.469Z,91.47
2018-10-09T07:03:00.993Z,81.57
2018-10-09T07:05:29.481Z,95.87
2018-10-09T07:07:57.985Z,97.10
2018-10-09T07:10:26.476Z,86.00
2018-10-09T07:12:55.197Z,87.40
2018-10-09T07:15:23.679Z,78.80
2018-10-09T07:17:52.429Z,89.67
2018-10-09T07:20:20.891Z,84.10
2018-10-09T07:22:49.394Z,93.43
2018-10-09T07:25:17.846Z,93.30
2018-10-09T07:27:46.375Z,93.90
2018-10-09T07:30:14.817Z,85.43
2018-10-09T07:32:43.313Z,90.57
2018-10-09T07:35:12.105Z,87.63
2018-10-09T07:37:40.592Z,90.97
2018-10-09T07:40:09.061Z,95.87
2018-10-09T07:42:37.546Z,88.60
2018-10-09T07:45:06.053Z,94.30
2018-10-09T07:47:34.501Z,91.60
2018-10-09T07:50:03.032Z,98.77
2018-10-09T07:52:31.515Z,96.53
2018-10-09T07:55:00.010Z,95.80
2018-10-09T07:57:28.485Z,80.47
2018-10-09T07:59:56.998Z,82.23
2018-10-09T08:02:25.461Z,85.97
2018-10-09T08:04:54.366Z,81.97
2018-10-09T08:07:23.282Z,95.73
2018-10-09T08:09:51.789Z,94.60
2018-10-09T08:12:20.262Z,87.87
2018-10-09T08:14:48.990Z,89.30
2018-10-09T08:17:17.458Z,98.30
2018-10-09T08:19:46.357Z,95.03
2018-10-09T08:22:14.882Z,93.23
2018-10-09T08:24:43.335Z,89.97
2018-10-09T08:27:11.791Z,91.80
2018-10-09T08:29:40.282Z,74.80
2018-10-09T08:32:08.827Z,99.53
2018-10-09T08:34:37.382Z,98.60
2018-10-09T08:37:05.854Z,102.83
2018-10-09T08:39:34.346Z,86.67
2018-10-09T08:42:02.803Z,96.47
2018-10-09T08:44:31.436Z,93.00
2018-10-09T08:47:00.321Z,96.60
2018-10-09T08:49:28.822Z,104.83
2018-10-09T08:51:57.388Z,84.53
2018-10-09T08:54:25.845Z,87.57
2018-10-09T08:56:54.307Z,83.20
2018-10-09T08:59:22.773Z,102.60
2018-10-09T09:01:51.277Z,89.43
2018-10-09T09:04:19.765Z,78.70
2018-10-09T09:06:48.240Z,79.87
2018-10-09T09:09:16.807Z,85.40
2018-10-09T09:11:45.266Z,90.07
2018-10-09T09:14:13.762Z,86.87
2018-10-09T09:16:42.210Z,84.93
2018-10-09T09:19:10.730Z,93.60
2018-10-09T09:21:39.200Z,85.27
2018-10-09T09:24:07.814Z,93.73
2018-10-09T09:26:36.391Z,90.97
2018-10-09T09:29:04.905Z,91.57
2018-10-09T09:31:33.625Z,86.63
2018-10-09T09:34:02.134Z,81.13
2018-10-09T09:36:30.611Z,93.00
2018-10-09T09:38:59.069Z,91.03
2018-10-09T09:41:27.588Z,84.60
2018-10-09T09:43:56.093Z,91.57
2018-10-09T09:46:24.856Z,78.17
2018-10-09T09:48:53.346Z,78.03
2018-10-09T09:51:21.865Z,87.60
2018-10-09T09:53:50.378Z,85.73
2018-10-09T09:56:18.866Z,86.00
2018-10-09T09:58:47.493Z,70.83
2018-10-09T10:01:15.890Z,68.73
2018-10-09T10:03:44.418Z,65.30
2018-10-09T10:06:12.879Z,69.33
2018-10-09T10:08:41.379Z,77.13
2018-10-09T10:11:09.861Z,63.77
2018-10-09T10:13:38.313Z,60.97
2018-10-09T10:16:06.827Z,61.63
2018-10-09T10:18:35.345Z,60.67
2018-10-09T10:21:03.886Z,54.87
2018-10-09T10:23:32.366Z,53.37
2018-10-09T10:26:00.881Z,62.60
2018-10-09T10:28:29.377Z,54.03
2018-10-09T10:30:57.873Z,51.63
2018-10-09T10:33:26.365Z,60.33
2018-10-09T10:35:54.901Z,50.60
2018-10-09T10:38:23.613Z,47.33
2018-10-09T10:40:52.155Z,49.20
2018-10-09T10:43:20.625Z,47.57
2018-10-09T10:45:49.410Z,47.87
2018-10-09T10:48:17.926Z,42.33
2018-10-09T10:50:46.413Z,51.33
2018-10-09T10:53:14.876Z,49.23
2018-10-09T10:55:43.378Z,46.93
2018-10-09T10:58:11.870Z,40.63
2018-10-09T11:00:40.375Z,49.37
2018-10-09T11:03:08.878Z,54.83
2018-10-09T11:05:37.399Z,41.87
2018-10-09T11:08:06.246Z,46.60
2018-10-09T11:10:34.942Z,44.80
2018-10-09T11:13:04.177Z,52.37
2018-10-09T11:15:32.682Z,48.67
2018-10-09T11:18:01.138Z,55.20
2018-10-09T11:20:29.917Z,52.17
2018-10-09T11:22:58.371Z,46.90
2018-10-09T11:25:26.965Z,51.17
2018-10-09T11:27:55.417Z,54.07
2018-10-09T11:30:23.921Z,52.37
2018-10-09T11:32:53.241Z,51.40
2018-10-09T11:35:21.782Z,49.53
2018-10-09T11:37:50.444Z,45.07
2018-10-09T11:40:18.982Z,46.27
2018-10-09T11:42:47.710Z,51.23
2018-10-09T11:45:16.172Z,48.57
2018-10-09T11:47:45.086Z,48.73
2018-10-09T11:50:13.559Z,46.83
2018-10-09T11:52:42.047Z,43.87
2018-10-09T11:55:10.505Z,46.03
2018-10-09T11:57:38.993Z,45.63
2018-10-09T12:00:08.739Z,48.43
2018-10-09T12:02:37.269Z,47.00
2018-10-09T12:05:05.733Z,49.63
2018-10-09T12:07:34.240Z,47.10
2018-10-09T12:10:02.828Z,46.67
2018-10-09T12:12:31.389Z,47.67
2018-10-09T12:14:59.865Z,47.60
2018-10-09T12:17:28.330Z,49.00
2018-10-09T12:19:56.858Z,39.73
2018-10-09T12:22:25.473Z,42.53
2018-10-09T12:24:53.969Z,43.30
2018-10-09T12:27:22.437Z,45.80
2018-10-09T12:29:51.761Z,38.80
2018-10-09T12:32:22.036Z,44.73
2018-10-09T12:34:52.515Z,34.97
2018-10-09T12:37:21.346Z,45.83
2018-10-09T12:39:49.891Z,43.33
2018-10-09T12:42:18.416Z,45.40
2018-10-09T12:44:48.333Z,49.73
2018-10-09T12:47:16.892Z,39.97
2018-10-09T12:49:45.339Z,43.30
2018-10-09T12:52:13.849Z,45.20
2018-10-09T12:54:42.303Z,38.77
2018-10-09T12:57:11.092Z,48.00
2018-10-09T12:59:39.530Z,46.47
2018-10-09T13:02:08.097Z,37.87
2018-10-09T13:04:36.525Z,48.07
2018-10-09T13:07:05.050Z,38.30
2018-10-09T13:09:33.592Z,43.57
2018-10-09T13:12:02.056Z,35.63
2018-10-09T13:14:30.570Z,41.37
2018-10-09T13:16:59.100Z,40.17
2018-10-09T13:19:27.518Z,43.40
2018-10-09T13:21:56.290Z,42.83
2018-10-09T13:24:24.697Z,39.67
2018-10-09T13:26:53.221Z,35.83
2018-10-09T13:29:21.682Z,36.17
2018-10-09T13:31:50.577Z,39.07
2018-10-09T13:34:19.804Z,36.63
2018-10-09T13:36:48.473Z,39.70
2018-10-09T13:39:16.958Z,40.30
2018-10-09T13:41:45.433Z,36.57
2018-10-09T13:44:13.972Z,34.67
2018-10-09T13:46:42.601Z,34.17
2018-10-09T13:49:11.701Z,35.43
2018-10-09T13:51:40.254Z,31.10
2018-10-09T13:54:08.765Z,29.70
2018-10-09T13:56:37.289Z,28.40
2018-10-09T13:59:06.221Z,33.37
2018-10-09T14:01:34.727Z,33.43
2018-10-09T14:04:03.185Z,30.53
2018-10-09T14:06:31.705Z,28.50
2018-10-09T14:09:00.178Z,29.87
2018-10-09T14:11:28.650Z,30.87
2018-10-09T14:13:57.165Z,30.57
2018-10-09T14:16:25.936Z,30.50
2018-10-09T14:18:54.394Z,34.30
2018-10-09T14:21:22.862Z,32.83
2018-10-09T14:23:51.318Z,37.07
2018-10-09T14:26:19.829Z,32.67
2018-10-09T14:28:48.297Z,31.90
2018-10-09T14:31:16.769Z,32.07
2018-10-09T14:33:45.277Z,31.67
2018-10-09T14:36:13.726Z,31.80
2018-10-09T14:38:42.214Z,32.83
2018-10-09T14:41:10.673Z,29.67
2018-10-09T14:43:39.175Z,29.17
2018-10-09T14:46:08.046Z,30.80
2018-10-09T14:48:36.536Z,31.40
2018-10-09T14:51:05.084Z,32.50
2018-10-09T14:53:33.687Z,29.03
2018-10-09T14:56:02.185Z,32.73
2018-10-09T14:58:30.661Z,31.83
2018-10-09T15:00:59.138Z,29.23
2018-10-09T15:03:27.633Z,30.60
2018-10-09T15:05:56.175Z,32.63
2018-10-09T15:08:24.631Z,33.60
2018-10-09T15:10:53.152Z,32.93
2018-10-09T15:13:21.587Z,32.33
2018-10-09T15:15:50.121Z,28.53
2018-10-09T15:18:18.625Z,32.23
2018-10-09T15:20:47.229Z,32.70
2018-10-09T15:23:15.937Z,29.80
2018-10-09T15:25:45.878Z,29.80
2018-10-09T15:28:15.389Z,30.40
2018-10-09T15:30:44.633Z,32.90
2018-10-09T15:33:14.349Z,31.53
2018-10-09T15:35:42.870Z,32.07
2018-10-09T15:38:12.684Z,30.53
2018-10-09T15:40:41.217Z,28.27
2018-10-09T15:43:09.735Z,25.93
2018-10-09T15:45:38.246Z,29.80
2018-10-09T15:48:06.730Z,27.63
2018-10-09T15:50:35.241Z,31.03
2018-10-09T15:53:03.837Z,38.37
2018-10-09T15:55:32.401Z,28.93
2018-10-09T15:58:00.971Z,27.70
2018-10-09T16:00:33.685Z,29.57
2018-10-09T16:03:02.122Z,31.20
2018-10-09T16:05:30.597Z,29.17
2018-10-09T16:07:59.026Z,25.80
2018-10-09T16:10:27.514Z,26.00
2018-10-09T16:12:56.013Z,25.00
2018-10-09T16:15:24.466Z,24.77
2018-10-09T16:17:52.953Z,27.30
2018-10-09T16:20:21.410Z,26.67
2018-10-09T16:22:50.062Z,27.40
2018-10-09T16:25:18.538Z,25.30
2018-10-09T16:27:47.073Z,26.10
2018-10-09T16:30:15.569Z,23.93
2018-10-09T16:32:44.369Z,27.30
2018-10-09T16:35:12.647Z,29.77
2018-10-09T16:37:41.121Z,26.20
2018-10-09T16:40:09.885Z,27.47
2018-10-09T16:42:38.381Z,26.77
2018-10-09T16:45:06.916Z,28.70
2018-10-09T16:47:35.758Z,26.47
2018-10-09T16:50:04.301Z,31.90
2018-10-09T16:52:32.798Z,29.03
2018-10-09T16:55:01.238Z,29.30
2018-10-09T16:57:29.710Z,29.20
2018-10-09T16:59:58.182Z,30.50
2018-10-09T17:02:26.653Z,29.17
2018-10-09T17:04:55.121Z,36.07
2018-10-09T17:07:23.679Z,27.97
2018-10-09T17:09:52.180Z,33.60
2018-10-09T17:12:20.654Z,33.50
2018-10-09T17:14:49.111Z,37.10
2018-10-09T17:17:17.634Z,35.00
2018-10-09T17:19:46.232Z,39.10
2018-10-09T17:22:14.653Z,36.63
2018-10-09T17:24:43.191Z,37.63
2018-10-09T17:27:11.642Z,39.07
2018-10-09T17:29:40.143Z,37.70
2018-10-09T17:32:08.629Z,40.33
2018-10-09T17:34:37.233Z,37.87
2018-10-09T17:37:05.806Z,47.60
2018-10-09T17:39:34.386Z,47.17
2018-10-09T17:42:02.904Z,40.80
2018-10-09T17:44:31.485Z,38.73
2018-10-09T17:47:04.200Z,39.30
2018-10-09T17:49:32.869Z,42.87
2018-10-09T17:52:01.348Z,44.70
2018-10-09T17:54:29.821Z,45.40
2018-10-09T17:56:59.006Z,44.13
2018-10-09T17:59:27.489Z,51.47
2018-10-09T18:01:56.001Z,49.73
2018-10-09T18:04:24.505Z,51.93
2018-10-09T18:06:52.994Z,50.50
2018-10-09T18:09:23.254Z,69.93
2018-10-09T18:11:51.761Z,63.67
2018-10-09T18:14:20.270Z,66.60
2018-10-09T18:16:48.730Z,56.67
2018-10-09T18:19:17.245Z,65.27
2018-10-09T18:21:46.035Z,69.13
2018-10-09T18:24:14.533Z,63.23
2018-10-09T18:26:43.818Z,70.70
2018-10-09T18:29:12.297Z,66.60
2018-10-09T18:31:40.757Z,73.77
2018-10-09T18:34:09.285Z,65.27
2018-10-09T18:36:38.018Z,64.27
2018-10-09T18:39:10.442Z,63.50
2018-10-09T18:41:39.094Z,63.90
2018-10-09T18:44:07.461Z,73.27
2018-10-09T18:46:52.563Z,63.10
2018-10-09T18:49:21.050Z,67.60
2018-10-09T18:51:49.494Z,68.67
2018-10-09T18:54:17.967Z,75.07
2018-10-09T18:56:46.428Z,75.87
2018-10-09T18:59:14.947Z,74.33
2018-10-09T19:01:43.442Z,74.43
2018-10-09T19:04:12.191Z,71.70
2018-10-09T19:06:40.674Z,73.87
2018-10-09T19:09:11.374Z,81.30
2018-10-09T19:11:40.085Z,78.50
2018-10-09T19:14:08.833Z,77.37
2018-10-09T19:16:37.335Z,70.20
2018-10-09T19:19:05.961Z,79.00
2018-10-09T19:21:34.470Z,69.47
2018-10-09T19:24:02.942Z,82.47
2018-10-09T19:26:31.508Z,77.50
2018-10-09T19:29:00.223Z,73.40
2018-10-09T19:31:28.745Z,79.90
2018-10-09T19:33:57.215Z,75.13
2018-10-09T19:36:25.766Z,81.70
2018-10-09T19:38:54.274Z,86.03
2018-10-09T19:41:22.789Z,81.00
2018-10-09T19:43:51.318Z,84.20
2018-10-09T19:46:19.852Z,79.87
2018-10-09T19:48:48.352Z,86.90
2018-10-09T19:51:17.757Z,81.03
2018-10-09T19:53:46.190Z,84.00
2018-10-09T19:56:14.735Z,77.97
2018-10-09T19:58:43.310Z,93.23
2018-10-09T20:01:11.959Z,87.77
2018-10-09T20:03:40.434Z,85.60
2018-10-09T20:06:08.974Z,86.67
2018-10-09T20:08:37.483Z,85.67
2018-10-09T20:11:06.040Z,82.20
2018-10-09T20:13:34.546Z,82.60
2018-10-09T20:16:03.050Z,86.20
2018-10-09T20:18:31.957Z,84.23
2018-10-09T20:21:00.624Z,92.23
2018-10-09T20:23:29.097Z,92.87
2018-10-09T20:25:57.842Z,95.27
2018-10-09T20:28:26.344Z,81.80
2018-10-09T20:30:54.903Z,83.93
2018-10-09T20:33:23.367Z,97.00
2018-10-09T20:35:51.931Z,90.53
2018-10-09T20:38:20.429Z,89.67
2018-10-09T20:40:48.958Z,79.90
2018-10-09T20:43:17.538Z,92.53
2018-10-09T20:45:46.081Z,82.07
2018-10-09T20:48:14.589Z,90.90
2018-10-09T20:50:43.123Z,82.60
2018-10-09T20:53:11.599Z,89.33
2018-10-09T20:55:40.134Z,88.50
2018-10-09T20:58:08.638Z,79.67
2018-10-09T21:00:37.197Z,97.40
2018-10-09T21:03:05.762Z,89.00
2018-10-09T21:05:34.301Z,83.47
2018-10-09T21:08:02.822Z,81.50
2018-10-09T21:10:31.387Z,93.23
2018-10-09T21:12:59.881Z,96.27
2018-10-09T21:15:28.353Z,84.87
2018-10-09T21:17:56.877Z,92.97
2018-10-09T21:20:25.349Z,100.30
2018-10-09T21:22:53.914Z,90.43
2018-10-09T21:25:22.425Z,89.80
2018-10-09T21:27:51.077Z,90.83
2018-10-09T21:30:19.622Z,86.43
2018-10-09T21:32:48.138Z,79.77
2018-10-09T21:35:16.598Z,84.43
2018-10-09T21:37:45.112Z,88.90
2018-10-09T21:40:13.603Z,73.60
2018-10-09T21:42:42.081Z,86.53
2018-10-09T21:45:10.545Z,81.40
2018-10-09T21:47:43.262Z,92.80
2018-10-09T21:50:12.082Z,85.03
2018-10-09T21:52:40.662Z,81.87
2018-10-09T21:55:09.175Z,78.23
2018-10-09T21:57:37.776Z,75.17
2018-10-09T22:00:06.421Z,88.67
2018-10-09T22:02:34.945Z,85.70
2018-10-09T22:05:03.514Z,80.50
2018-10-09T22:07:32.269Z,81.37
2018-10-09T22:10:01.121Z,94.17
2018-10-09T22:12:29.624Z,78.83
2018-10-09T22:14:58.130Z,89.30
2018-10-09T22:17:26.961Z,92.97
2018-10-09T22:19:55.715Z,88.90
2018-10-09T22:22:24.518Z,87.27
2018-10-09T22:24:52.992Z,79.47
2018-10-09T22:27:21.912Z,96.87
2018-10-09T22:29:50.607Z,98.22
2018-10-09T22:32:19.142Z,100.80
2018-10-09T22:34:47.989Z,90.30
2018-10-09T22:37:16.676Z,85.60
2018-10-09T22:39:45.278Z,86.75
2018-10-09T22:42:13.780Z,80.50
2018-10-09T22:44:42.267Z,102.87
2018-10-09T22:47:10.774Z,83.95
2018-10-09T22:49:39.294Z,85.15
2018-10-09T22:52:07.910Z,83.92
2018-10-09T22:54:36.403Z,104.75
2018-10-09T22:57:04.988Z,91.10
2018-10-09T22:59:33.827Z,87.43
2018-10-09T23:02:02.458Z,95.40
2018-10-09T23:04:30.993Z,103.85
2018-10-09T23:06:59.518Z,101.22
2018-10-09T23:09:28.022Z,94.13
2018-10-09T23:11:56.521Z,108.20
2018-10-09T23:14:25.016Z,94.80
2018-10-09T23:16:53.486Z,93.20
2018-10-09T23:19:22.010Z,107.40
2018-10-09T23:21:50.513Z,106.17
2018-10-09T23:24:19.073Z,122.30
2018-10-09T23:26:47.565Z,101.60
2018-10-09T23:29:16.074Z,124.00
2018-10-09T23:31:44.959Z,121.60
2018-10-09T23:34:13.470Z,122.83
2018-10-09T23:36:41.963Z,113.27
2018-10-09T23:39:10.474Z,110.33
2018-10-09T23:41:38.981Z,116.13
2018-10-09T23:44:07.547Z,111.50
2018-10-09T23:46:36.093Z,121.17
2018-10-09T23:49:04.653Z,116.97
2018-10-09T23:51:33.137Z,107.30
2018-10-09T23:54:01.647Z,118.67
2018-10-09T23:56:30.126Z,113.10
2018-10-09T23:58:58.739Z,107.23
